Airfield :
LOGIN :

Register | Disclaimer

   EN    FR    IT 

 










Legend :    VFR   Marginal VFR   IFR   Intensive IFR   Very Intensive IFR
Visi :
Ceiling :
>= 8 km
>= 3000ft
5 to 8 km
1000 to 3000 ft
1500m to 5 km
500 to 1000 ft
800 to 1500m
200 to 500 ft
< 800m
< 200 ft
Symbols :   Thunderstorms  Fog  Heavy snow  Heavy precipitations  Wind > 20 kt
SIGMETs :     Misc.  Thunderstorms  Icing  Turbulence  Mountain Waves  Volcanic Ashes






- Airport Elevation : 1503 ft
- IATA code : HMV


ESUT - Hemavan

CURRENT METAR :
  • 192020Z AUTO 30014KT 9999 SCT014/// BKN019/// 13/12 Q1017

EXPIRED METARs :
  • 191950Z AUTO 30010KT 250V330 9999 NCD 13/12 Q1017
  • 191920Z AUTO 30011KT 9999 SCT084/// 14/12 Q1017
  • 191850Z AUTO 30011KT 9999 FEW084/// 14/12 Q1017
  • 191820Z AUTO 29012KT 9999 NCD 14/12 Q1016
  • 191750Z AUTO 30013G25KT 9999 NCD 14/12 Q1016
  • 191650Z AUTO 29014KT 9999 NCD 15/12 Q1016
  • 191620Z AUTO 30014KT 9999 FEW028/// SCT080/// 15/12 Q1016
  • 191550Z AUTO 31013KT 9999 FEW086/// 16/12 Q1016

TAF N/A



MET'MAP, your aeronautical weather chart ! - Copyright ORBIFLY December 2007 - Disclaimer

ORBIFLY MET'MAP TEAM :

Programming & Development : Alexandra Zaïnal
Original concept : Baudouin d'Aumeries
Technical & hardware support : Manuel Goepfert
Assistance : Marc-Olivier Méhu




SOURCES & CREDITS :

   NOAA